sensor_id;sensor_type;location;lat;lon;timestamp;temperature;humidity
37998;DHT22;24079;51.824;4.682;2023-03-02T00:01:46;2.40;99.90
37998;DHT22;24079;51.824;4.682;2023-03-02T00:04:25;2.40;99.90
37998;DHT22;24079;51.824;4.682;2023-03-02T00:06:54;2.40;99.90
37998;DHT22;24079;51.824;4.682;2023-03-02T00:09:21;2.40;99.90
37998;DHT22;24079;51.824;4.682;2023-03-02T00:11:46;2.40;99.90
37998;DHT22;24079;51.824;4.682;2023-03-02T00:14:12;2.40;99.90
37998;DHT22;24079;51.824;4.682;2023-03-02T00:16:38;2.40;99.90
37998;DHT22;24079;51.824;4.682;2023-03-02T00:19:04;2.40;99.90
37998;DHT22;24079;51.824;4.682;2023-03-02T00:21:30;2.30;99.90
37998;DHT22;24079;51.824;4.682;2023-03-02T00:23:56;2.30;99.90
37998;DHT22;24079;51.824;4.682;2023-03-02T00:26:22;2.40;99.90
37998;DHT22;24079;51.824;4.682;2023-03-02T00:28:48;2.30;99.90
37998;DHT22;24079;51.824;4.682;2023-03-02T00:31:14;2.30;99.90
37998;DHT22;24079;51.824;4.682;2023-03-02T00:33:39;2.20;99.90
37998;DHT22;24079;51.824;4.682;2023-03-02T00:36:07;2.20;99.90
37998;DHT22;24079;51.824;4.682;2023-03-02T00:38:38;2.20;99.90
37998;DHT22;24079;51.824;4.682;2023-03-02T00:41:03;2.10;99.90
37998;DHT22;24079;51.824;4.682;2023-03-02T00:43:29;2.20;99.90
37998;DHT22;24079;51.824;4.682;2023-03-02T00:45:55;2.20;99.90
37998;DHT22;24079;51.824;4.682;2023-03-02T00:48:21;2.10;99.90
37998;DHT22;24079;51.824;4.682;2023-03-02T00:50:46;2.10;99.90
37998;DHT22;24079;51.824;4.682;2023-03-02T00:53:12;2.10;99.90
37998;DHT22;24079;51.824;4.682;2023-03-02T00:55:38;2.10;99.90
37998;DHT22;24079;51.824;4.682;2023-03-02T00:58:04;2.20;99.90
37998;DHT22;24079;51.824;4.682;2023-03-02T01:00:30;2.20;99.90
37998;DHT22;24079;51.824;4.682;2023-03-02T01:02:56;2.10;99.90
37998;DHT22;24079;51.824;4.682;2023-03-02T01:05:22;2.10;99.90
37998;DHT22;24079;51.824;4.682;2023-03-02T01:07:48;2.10;99.90
37998;DHT22;24079;51.824;4.682;2023-03-02T01:10:14;2.10;99.90
37998;DHT22;24079;51.824;4.682;2023-03-02T01:12:40;2.00;99.90
37998;DHT22;24079;51.824;4.682;2023-03-02T01:15:06;1.90;99.90
37998;DHT22;24079;51.824;4.682;2023-03-02T01:17:33;1.90;99.90
37998;DHT22;24079;51.824;4.682;2023-03-02T01:19:58;1.90;99.90
37998;DHT22;24079;51.824;4.682;2023-03-02T01:22:24;1.90;99.90
37998;DHT22;24079;51.824;4.682;2023-03-02T01:24:50;1.90;99.90
37998;DHT22;24079;51.824;4.682;2023-03-02T01:27:16;1.90;99.90
37998;DHT22;24079;51.824;4.682;2023-03-02T01:29:42;1.80;99.90
37998;DHT22;24079;51.824;4.682;2023-03-02T01:32:07;1.80;99.90
37998;DHT22;24079;51.824;4.682;2023-03-02T01:34:33;1.80;99.90
37998;DHT22;24079;51.824;4.682;2023-03-02T01:36:59;1.80;99.90
37998;DHT22;24079;51.824;4.682;2023-03-02T01:39:24;1.70;99.90
37998;DHT22;24079;51.824;4.682;2023-03-02T01:41:51;1.70;99.90
37998;DHT22;24079;51.824;4.682;2023-03-02T01:47:15;1.60;99.90
37998;DHT22;24079;51.824;4.682;2023-03-02T01:52:33;1.60;99.90
37998;DHT22;24079;51.824;4.682;2023-03-02T01:55:05;1.70;99.90
37998;DHT22;24079;51.824;4.682;2023-03-02T01:57:34;1.70;99.90
37998;DHT22;24079;51.824;4.682;2023-03-02T02:00:09;1.70;99.90
37998;DHT22;24079;51.824;4.682;2023-03-02T02:02:36;1.70;99.90
37998;DHT22;24079;51.824;4.682;2023-03-02T02:05:07;1.70;99.90
37998;DHT22;24079;51.824;4.682;2023-03-02T02:07:33;1.70;99.90
37998;DHT22;24079;51.824;4.682;2023-03-02T02:09:59;1.70;99.90
37998;DHT22;24079;51.824;4.682;2023-03-02T02:12:25;1.80;99.90
37998;DHT22;24079;51.824;4.682;2023-03-02T02:14:51;1.70;99.90
37998;DHT22;24079;51.824;4.682;2023-03-02T02:17:18;1.60;99.90
37998;DHT22;24079;51.824;4.682;2023-03-02T02:19:53;1.60;99.90
37998;DHT22;24079;51.824;4.682;2023-03-02T02:25:01;1.60;99.90
37998;DHT22;24079;51.824;4.682;2023-03-02T02:27:28;1.60;99.90
37998;DHT22;24079;51.824;4.682;2023-03-02T02:30:00;1.60;99.90
37998;DHT22;24079;51.824;4.682;2023-03-02T02:32:30;1.60;99.90
37998;DHT22;24079;51.824;4.682;2023-03-02T02:35:26;1.60;99.90
37998;DHT22;24079;51.824;4.682;2023-03-02T02:37:56;1.60;99.90
37998;DHT22;24079;51.824;4.682;2023-03-02T02:40:52;1.60;99.90
37998;DHT22;24079;51.824;4.682;2023-03-02T02:43:21;1.60;99.90
37998;DHT22;24079;51.824;4.682;2023-03-02T02:45:50;1.50;99.90
37998;DHT22;24079;51.824;4.682;2023-03-02T02:48:19;1.50;99.90
37998;DHT22;24079;51.824;4.682;2023-03-02T02:50:45;1.50;99.90
37998;DHT22;24079;51.824;4.682;2023-03-02T02:53:21;1.50;99.90
37998;DHT22;24079;51.824;4.682;2023-03-02T02:55:53;1.50;99.90
37998;DHT22;24079;51.824;4.682;2023-03-02T02:58:35;1.50;99.90
37998;DHT22;24079;51.824;4.682;2023-03-02T03:01:02;1.50;99.90
37998;DHT22;24079;51.824;4.682;2023-03-02T03:03:31;1.50;99.90
37998;DHT22;24079;51.824;4.682;2023-03-02T03:06:00;1.50;99.90
37998;DHT22;24079;51.824;4.682;2023-03-02T03:08:49;1.50;99.90
37998;DHT22;24079;51.824;4.682;2023-03-02T03:11:18;1.40;99.90
37998;DHT22;24079;51.824;4.682;2023-03-02T03:13:51;1.40;99.90
37998;DHT22;24079;51.824;4.682;2023-03-02T03:16:18;1.50;99.90
37998;DHT22;24079;51.824;4.682;2023-03-02T03:18:46;1.50;99.90
37998;DHT22;24079;51.824;4.682;2023-03-02T03:21:13;1.40;99.90
37998;DHT22;24079;51.824;4.682;2023-03-02T03:23:39;1.50;99.90
37998;DHT22;24079;51.824;4.682;2023-03-02T03:26:05;1.40;99.90
37998;DHT22;24079;51.824;4.682;2023-03-02T03:28:31;1.50;99.90
37998;DHT22;24079;51.824;4.682;2023-03-02T03:30:57;1.50;99.90
37998;DHT22;24079;51.824;4.682;2023-03-02T03:33:23;1.50;99.90
37998;DHT22;24079;51.824;4.682;2023-03-02T03:35:48;1.50;99.90
37998;DHT22;24079;51.824;4.682;2023-03-02T03:38:14;1.50;99.90
37998;DHT22;24079;51.824;4.682;2023-03-02T03:40:40;1.50;99.90
37998;DHT22;24079;51.824;4.682;2023-03-02T03:43:06;1.50;99.90
37998;DHT22;24079;51.824;4.682;2023-03-02T03:45:32;1.40;99.90
37998;DHT22;24079;51.824;4.682;2023-03-02T03:47:57;1.40;99.90
37998;DHT22;24079;51.824;4.682;2023-03-02T03:50:23;1.40;99.90
37998;DHT22;24079;51.824;4.682;2023-03-02T03:52:49;1.40;99.90
37998;DHT22;24079;51.824;4.682;2023-03-02T03:55:15;1.40;99.90
37998;DHT22;24079;51.824;4.682;2023-03-02T03:57:41;1.40;99.90
37998;DHT22;24079;51.824;4.682;2023-03-02T04:00:10;1.50;99.90
37998;DHT22;24079;51.824;4.682;2023-03-02T04:02:39;1.50;99.90
37998;DHT22;24079;51.824;4.682;2023-03-02T04:05:06;1.50;99.90
37998;DHT22;24079;51.824;4.682;2023-03-02T04:07:33;1.50;99.90
37998;DHT22;24079;51.824;4.682;2023-03-02T04:09:59;1.50;99.90
37998;DHT22;24079;51.824;4.682;2023-03-02T04:12:31;1.50;99.90
37998;DHT22;24079;51.824;4.682;2023-03-02T04:14:58;1.60;99.90
37998;DHT22;24079;51.824;4.682;2023-03-02T04:17:24;1.50;99.90
37998;DHT22;24079;51.824;4.682;2023-03-02T04:19:51;1.50;99.90
37998;DHT22;24079;51.824;4.682;2023-03-02T04:22:16;1.50;99.90
37998;DHT22;24079;51.824;4.682;2023-03-02T04:24:44;1.50;99.90
37998;DHT22;24079;51.824;4.682;2023-03-02T04:27:11;1.50;99.90
37998;DHT22;24079;51.824;4.682;2023-03-02T04:29:37;1.50;99.90
37998;DHT22;24079;51.824;4.682;2023-03-02T04:32:04;1.50;99.90
37998;DHT22;24079;51.824;4.682;2023-03-02T04:34:31;1.40;99.90
37998;DHT22;24079;51.824;4.682;2023-03-02T04:36:57;1.40;99.90
37998;DHT22;24079;51.824;4.682;2023-03-02T04:39:23;1.30;99.90
37998;DHT22;24079;51.824;4.682;2023-03-02T04:41:50;1.30;99.90
37998;DHT22;24079;51.824;4.682;2023-03-02T04:44:17;1.40;99.90
37998;DHT22;24079;51.824;4.682;2023-03-02T04:46:44;1.30;99.90
37998;DHT22;24079;51.824;4.682;2023-03-02T04:49:11;1.40;99.90
37998;DHT22;24079;51.824;4.682;2023-03-02T04:51:39;1.40;99.90
37998;DHT22;24079;51.824;4.682;2023-03-02T04:54:09;1.40;99.90
37998;DHT22;24079;51.824;4.682;2023-03-02T04:56:36;1.30;99.90
37998;DHT22;24079;51.824;4.682;2023-03-02T04:59:01;1.40;99.90
37998;DHT22;24079;51.824;4.682;2023-03-02T05:01:27;1.30;99.90
37998;DHT22;24079;51.824;4.682;2023-03-02T05:03:53;1.30;99.90
37998;DHT22;24079;51.824;4.682;2023-03-02T05:06:20;1.30;99.90
37998;DHT22;24079;51.824;4.682;2023-03-02T05:08:46;1.20;99.90
37998;DHT22;24079;51.824;4.682;2023-03-02T05:11:13;1.20;99.90
37998;DHT22;24079;51.824;4.682;2023-03-02T05:13:47;1.30;99.90
37998;DHT22;24079;51.824;4.682;2023-03-02T05:16:13;1.30;99.90
37998;DHT22;24079;51.824;4.682;2023-03-02T05:18:39;1.30;99.90
37998;DHT22;24079;51.824;4.682;2023-03-02T05:21:05;1.20;99.90
37998;DHT22;24079;51.824;4.682;2023-03-02T05:23:31;1.30;99.90
37998;DHT22;24079;51.824;4.682;2023-03-02T05:25:57;1.20;99.90
37998;DHT22;24079;51.824;4.682;2023-03-02T05:28:24;1.20;99.90
37998;DHT22;24079;51.824;4.682;2023-03-02T05:30:50;1.20;99.90
37998;DHT22;24079;51.824;4.682;2023-03-02T05:33:18;1.20;99.90
37998;DHT22;24079;51.824;4.682;2023-03-02T05:35:44;1.20;99.90
37998;DHT22;24079;51.824;4.682;2023-03-02T05:38:11;1.20;99.90
37998;DHT22;24079;51.824;4.682;2023-03-02T05:40:38;1.20;99.90
37998;DHT22;24079;51.824;4.682;2023-03-02T05:43:05;1.10;99.90
37998;DHT22;24079;51.824;4.682;2023-03-02T05:45:37;1.20;99.90
37998;DHT22;24079;51.824;4.682;2023-03-02T05:48:04;1.10;99.90
37998;DHT22;24079;51.824;4.682;2023-03-02T05:50:31;1.10;99.90
37998;DHT22;24079;51.824;4.682;2023-03-02T05:52:57;1.10;99.90
37998;DHT22;24079;51.824;4.682;2023-03-02T05:55:24;1.10;99.90
37998;DHT22;24079;51.824;4.682;2023-03-02T05:57:50;1.10;99.90
37998;DHT22;24079;51.824;4.682;2023-03-02T06:00:16;1.10;99.90
37998;DHT22;24079;51.824;4.682;2023-03-02T06:02:42;1.10;99.90
37998;DHT22;24079;51.824;4.682;2023-03-02T06:05:14;1.10;99.90
37998;DHT22;24079;51.824;4.682;2023-03-02T06:07:40;1.10;99.90
37998;DHT22;24079;51.824;4.682;2023-03-02T06:10:07;1.10;99.90
37998;DHT22;24079;51.824;4.682;2023-03-02T06:12:33;1.10;99.90
37998;DHT22;24079;51.824;4.682;2023-03-02T06:14:59;1.10;99.90
37998;DHT22;24079;51.824;4.682;2023-03-02T06:17:25;1.10;99.90
37998;DHT22;24079;51.824;4.682;2023-03-02T06:19:51;1.10;99.90
37998;DHT22;24079;51.824;4.682;2023-03-02T06:22:17;1.10;99.90
37998;DHT22;24079;51.824;4.682;2023-03-02T06:24:43;1.00;99.90
37998;DHT22;24079;51.824;4.682;2023-03-02T06:27:09;1.10;99.90
37998;DHT22;24079;51.824;4.682;2023-03-02T06:29:36;1.10;99.90
37998;DHT22;24079;51.824;4.682;2023-03-02T06:32:01;1.00;99.90
37998;DHT22;24079;51.824;4.682;2023-03-02T06:34:27;1.10;99.90
37998;DHT22;24079;51.824;4.682;2023-03-02T06:36:53;1.10;99.90
37998;DHT22;24079;51.824;4.682;2023-03-02T06:39:20;1.10;99.90
37998;DHT22;24079;51.824;4.682;2023-03-02T06:41:46;1.00;99.90
37998;DHT22;24079;51.824;4.682;2023-03-02T06:44:13;1.10;99.90
37998;DHT22;24079;51.824;4.682;2023-03-02T06:46:39;1.10;99.90
37998;DHT22;24079;51.824;4.682;2023-03-02T06:49:06;1.10;99.90
37998;DHT22;24079;51.824;4.682;2023-03-02T06:51:32;1.00;99.90
37998;DHT22;24079;51.824;4.682;2023-03-02T06:53:57;1.00;99.90
37998;DHT22;24079;51.824;4.682;2023-03-02T06:56:23;1.10;99.90
37998;DHT22;24079;51.824;4.682;2023-03-02T06:58:49;1.10;99.90
37998;DHT22;24079;51.824;4.682;2023-03-02T07:01:14;1.10;99.90
37998;DHT22;24079;51.824;4.682;2023-03-02T07:03:40;1.10;99.90
37998;DHT22;24079;51.824;4.682;2023-03-02T07:06:06;1.00;99.90
37998;DHT22;24079;51.824;4.682;2023-03-02T07:08:32;1.10;99.90
37998;DHT22;24079;51.824;4.682;2023-03-02T07:10:58;1.20;99.90
37998;DHT22;24079;51.824;4.682;2023-03-02T07:13:24;1.20;99.90
37998;DHT22;24079;51.824;4.682;2023-03-02T07:15:50;1.20;99.90
37998;DHT22;24079;51.824;4.682;2023-03-02T07:18:16;1.20;99.90
37998;DHT22;24079;51.824;4.682;2023-03-02T07:20:43;1.20;99.90
37998;DHT22;24079;51.824;4.682;2023-03-02T07:23:09;1.30;99.90
37998;DHT22;24079;51.824;4.682;2023-03-02T07:25:35;1.30;99.90
37998;DHT22;24079;51.824;4.682;2023-03-02T07:28:01;1.20;99.90
37998;DHT22;24079;51.824;4.682;2023-03-02T07:30:27;1.30;99.90
37998;DHT22;24079;51.824;4.682;2023-03-02T07:32:53;1.30;99.90
37998;DHT22;24079;51.824;4.682;2023-03-02T07:35:19;1.30;99.90
37998;DHT22;24079;51.824;4.682;2023-03-02T07:37:45;1.40;99.90
37998;DHT22;24079;51.824;4.682;2023-03-02T07:40:11;1.50;99.90
37998;DHT22;24079;51.824;4.682;2023-03-02T07:42:38;1.70;99.90
37998;DHT22;24079;51.824;4.682;2023-03-02T07:45:05;1.80;99.90
37998;DHT22;24079;51.824;4.682;2023-03-02T07:47:31;2.00;99.90
37998;DHT22;24079;51.824;4.682;2023-03-02T07:49:57;2.10;99.90
37998;DHT22;24079;51.824;4.682;2023-03-02T07:52:22;2.20;99.90
37998;DHT22;24079;51.824;4.682;2023-03-02T07:54:48;2.20;99.90
37998;DHT22;24079;51.824;4.682;2023-03-02T07:57:14;2.20;99.90
37998;DHT22;24079;51.824;4.682;2023-03-02T07:59:43;2.40;99.90
37998;DHT22;24079;51.824;4.682;2023-03-02T08:02:14;2.40;99.90
37998;DHT22;24079;51.824;4.682;2023-03-02T08:04:40;2.50;99.90
37998;DHT22;24079;51.824;4.682;2023-03-02T08:07:06;2.70;99.90
37998;DHT22;24079;51.824;4.682;2023-03-02T08:09:32;2.50;99.90
37998;DHT22;24079;51.824;4.682;2023-03-02T08:11:58;2.70;99.90
37998;DHT22;24079;51.824;4.682;2023-03-02T08:14:24;3.00;99.90
37998;DHT22;24079;51.824;4.682;2023-03-02T08:16:50;3.30;99.90
37998;DHT22;24079;51.824;4.682;2023-03-02T08:19:18;3.60;99.90
37998;DHT22;24079;51.824;4.682;2023-03-02T08:21:44;3.70;99.90
37998;DHT22;24079;51.824;4.682;2023-03-02T08:24:11;3.70;99.90
37998;DHT22;24079;51.824;4.682;2023-03-02T08:26:37;3.80;99.90
37998;DHT22;24079;51.824;4.682;2023-03-02T08:29:04;3.60;99.90
37998;DHT22;24079;51.824;4.682;2023-03-02T08:31:30;3.70;99.90
37998;DHT22;24079;51.824;4.682;2023-03-02T08:33:56;3.80;99.90
37998;DHT22;24079;51.824;4.682;2023-03-02T08:36:24;3.80;99.90
37998;DHT22;24079;51.824;4.682;2023-03-02T08:38:51;3.90;99.90
37998;DHT22;24079;51.824;4.682;2023-03-02T08:41:19;3.80;99.90
37998;DHT22;24079;51.824;4.682;2023-03-02T08:43:46;3.80;99.90
37998;DHT22;24079;51.824;4.682;2023-03-02T08:46:14;3.90;99.90
37998;DHT22;24079;51.824;4.682;2023-03-02T08:48:40;3.80;99.90
37998;DHT22;24079;51.824;4.682;2023-03-02T08:51:13;3.80;99.90
37998;DHT22;24079;51.824;4.682;2023-03-02T08:53:41;3.60;99.90
37998;DHT22;24079;51.824;4.682;2023-03-02T08:56:40;3.80;99.90
37998;DHT22;24079;51.824;4.682;2023-03-02T08:59:10;3.80;99.90
37998;DHT22;24079;51.824;4.682;2023-03-02T09:01:37;3.90;99.90
37998;DHT22;24079;51.824;4.682;2023-03-02T09:04:05;3.90;99.90
37998;DHT22;24079;51.824;4.682;2023-03-02T09:06:34;4.10;99.90
37998;DHT22;24079;51.824;4.682;2023-03-02T09:09:00;4.10;99.90
37998;DHT22;24079;51.824;4.682;2023-03-02T09:11:26;4.10;99.90
37998;DHT22;24079;51.824;4.682;2023-03-02T09:13:52;4.40;99.90
37998;DHT22;24079;51.824;4.682;2023-03-02T09:16:19;4.50;99.90
37998;DHT22;24079;51.824;4.682;2023-03-02T09:18:45;4.80;99.90
37998;DHT22;24079;51.824;4.682;2023-03-02T09:21:11;4.90;99.90
37998;DHT22;24079;51.824;4.682;2023-03-02T09:23:37;4.90;99.90
37998;DHT22;24079;51.824;4.682;2023-03-02T09:26:03;4.90;99.90
37998;DHT22;24079;51.824;4.682;2023-03-02T09:28:29;5.00;99.90
37998;DHT22;24079;51.824;4.682;2023-03-02T09:31:00;5.00;99.90
37998;DHT22;24079;51.824;4.682;2023-03-02T09:33:27;5.10;99.90
37998;DHT22;24079;51.824;4.682;2023-03-02T09:35:53;5.20;99.90
37998;DHT22;24079;51.824;4.682;2023-03-02T09:38:18;5.30;99.90
37998;DHT22;24079;51.824;4.682;2023-03-02T09:44:32;5.50;99.90
37998;DHT22;24079;51.824;4.682;2023-03-02T09:50:15;6.00;99.90
37998;DHT22;24079;51.824;4.682;2023-03-02T09:53:10;6.00;99.90
37998;DHT22;24079;51.824;4.682;2023-03-02T09:55:42;6.10;99.90
37998;DHT22;24079;51.824;4.682;2023-03-02T09:58:18;6.00;99.90
37998;DHT22;24079;51.824;4.682;2023-03-02T10:00:45;6.00;99.90
37998;DHT22;24079;51.824;4.682;2023-03-02T10:03:17;5.90;99.90
37998;DHT22;24079;51.824;4.682;2023-03-02T10:05:50;6.10;99.90
37998;DHT22;24079;51.824;4.682;2023-03-02T10:08:20;6.40;99.90
37998;DHT22;24079;51.824;4.682;2023-03-02T10:11:04;6.50;99.90
37998;DHT22;24079;51.824;4.682;2023-03-02T10:14:08;6.60;99.90
37998;DHT22;24079;51.824;4.682;2023-03-02T10:16:47;6.70;99.90
37998;DHT22;24079;51.824;4.682;2023-03-02T10:24:44;6.80;99.90
37998;DHT22;24079;51.824;4.682;2023-03-02T10:27:28;6.80;99.90
37998;DHT22;24079;51.824;4.682;2023-03-02T10:30:25;7.00;99.90
37998;DHT22;24079;51.824;4.682;2023-03-02T10:32:55;7.00;99.90
37998;DHT22;24079;51.824;4.682;2023-03-02T10:35:24;6.70;99.90
37998;DHT22;24079;51.824;4.682;2023-03-02T10:43:19;7.10;99.90
37998;DHT22;24079;51.824;4.682;2023-03-02T10:46:04;7.10;99.90
37998;DHT22;24079;51.824;4.682;2023-03-02T10:48:32;7.20;99.90
37998;DHT22;24079;51.824;4.682;2023-03-02T10:51:03;7.10;99.90
37998;DHT22;24079;51.824;4.682;2023-03-02T10:53:29;7.10;99.90
37998;DHT22;24079;51.824;4.682;2023-03-02T10:55:55;7.20;99.90
37998;DHT22;24079;51.824;4.682;2023-03-02T11:01:19;7.30;99.90
37998;DHT22;24079;51.824;4.682;2023-03-02T11:03:57;7.40;99.90
37998;DHT22;24079;51.824;4.682;2023-03-02T11:06:22;7.50;99.90
37998;DHT22;24079;51.824;4.682;2023-03-02T11:09:05;7.40;99.90
37998;DHT22;24079;51.824;4.682;2023-03-02T11:11:32;7.50;99.90
37998;DHT22;24079;51.824;4.682;2023-03-02T11:14:15;7.50;99.90
37998;DHT22;24079;51.824;4.682;2023-03-02T11:16:42;7.50;99.90
37998;DHT22;24079;51.824;4.682;2023-03-02T11:19:28;7.40;99.90
37998;DHT22;24079;51.824;4.682;2023-03-02T11:22:18;7.40;99.90
37998;DHT22;24079;51.824;4.682;2023-03-02T11:24:52;7.50;99.90
37998;DHT22;24079;51.824;4.682;2023-03-02T11:27:30;7.50;99.90
37998;DHT22;24079;51.824;4.682;2023-03-02T11:30:14;7.60;99.90
37998;DHT22;24079;51.824;4.682;2023-03-02T11:33:33;7.70;99.90
37998;DHT22;24079;51.824;4.682;2023-03-02T11:35:53;7.80;99.90
37998;DHT22;24079;51.824;4.682;2023-03-02T11:38:29;7.70;99.90
37998;DHT22;24079;51.824;4.682;2023-03-02T11:41:12;7.80;99.90
37998;DHT22;24079;51.824;4.682;2023-03-02T11:43:39;7.80;99.90
37998;DHT22;24079;51.824;4.682;2023-03-02T11:46:06;7.80;99.90
37998;DHT22;24079;51.824;4.682;2023-03-02T11:48:45;7.80;99.90
37998;DHT22;24079;51.824;4.682;2023-03-02T11:51:28;7.80;99.90
37998;DHT22;24079;51.824;4.682;2023-03-02T11:54:04;7.80;99.90
37998;DHT22;24079;51.824;4.682;2023-03-02T11:56:34;7.90;99.90
37998;DHT22;24079;51.824;4.682;2023-03-02T11:59:15;8.10;99.90
37998;DHT22;24079;51.824;4.682;2023-03-02T12:01:47;8.00;99.90
37998;DHT22;24079;51.824;4.682;2023-03-02T12:04:35;8.00;99.90
37998;DHT22;24079;51.824;4.682;2023-03-02T12:07:23;8.10;99.90
37998;DHT22;24079;51.824;4.682;2023-03-02T12:10:01;8.10;99.90
37998;DHT22;24079;51.824;4.682;2023-03-02T12:12:38;8.20;99.90
37998;DHT22;24079;51.824;4.682;2023-03-02T12:15:26;8.40;99.90
37998;DHT22;24079;51.824;4.682;2023-03-02T12:17:55;8.40;99.90
37998;DHT22;24079;51.824;4.682;2023-03-02T12:20:24;8.30;99.90
37998;DHT22;24079;51.824;4.682;2023-03-02T12:22:51;8.30;99.90
37998;DHT22;24079;51.824;4.682;2023-03-02T12:27:45;8.40;99.90
37998;DHT22;24079;51.824;4.682;2023-03-02T12:30:21;8.50;99.90
37998;DHT22;24079;51.824;4.682;2023-03-02T12:35:35;8.50;99.90
37998;DHT22;24079;51.824;4.682;2023-03-02T12:38:05;8.50;99.90
37998;DHT22;24079;51.824;4.682;2023-03-02T12:54:19;8.70;99.90
37998;DHT22;24079;51.824;4.682;2023-03-02T12:56:46;8.70;99.90
37998;DHT22;24079;51.824;4.682;2023-03-02T12:59:21;8.70;99.90
37998;DHT22;24079;51.824;4.682;2023-03-02T13:01:47;8.90;99.90
37998;DHT22;24079;51.824;4.682;2023-03-02T13:04:24;8.90;99.90
37998;DHT22;24079;51.824;4.682;2023-03-02T13:06:52;9.00;99.90
37998;DHT22;24079;51.824;4.682;2023-03-02T13:09:19;9.10;99.90
37998;DHT22;24079;51.824;4.682;2023-03-02T13:11:46;9.20;99.90
37998;DHT22;24079;51.824;4.682;2023-03-02T13:14:27;9.10;99.90
37998;DHT22;24079;51.824;4.682;2023-03-02T13:16:55;9.10;99.90
37998;DHT22;24079;51.824;4.682;2023-03-02T13:19:21;9.20;99.90
37998;DHT22;24079;51.824;4.682;2023-03-02T13:21:48;9.20;99.90
37998;DHT22;24079;51.824;4.682;2023-03-02T13:26:57;9.10;99.90
37998;DHT22;24079;51.824;4.682;2023-03-02T13:29:27;9.10;99.90
37998;DHT22;24079;51.824;4.682;2023-03-02T13:31:55;9.10;99.90
37998;DHT22;24079;51.824;4.682;2023-03-02T13:34:27;9.10;99.90
37998;DHT22;24079;51.824;4.682;2023-03-02T13:36:53;9.10;99.90
37998;DHT22;24079;51.824;4.682;2023-03-02T13:39:24;9.10;99.90
37998;DHT22;24079;51.824;4.682;2023-03-02T13:41:56;9.10;99.90
37998;DHT22;24079;51.824;4.682;2023-03-02T13:44:33;9.10;99.90
37998;DHT22;24079;51.824;4.682;2023-03-02T13:47:00;9.10;99.90
37998;DHT22;24079;51.824;4.682;2023-03-02T13:49:33;9.20;99.90
37998;DHT22;24079;51.824;4.682;2023-03-02T13:52:15;9.30;99.90
37998;DHT22;24079;51.824;4.682;2023-03-02T13:54:44;9.30;99.90
37998;DHT22;24079;51.824;4.682;2023-03-02T13:57:19;9.20;99.90
37998;DHT22;24079;51.824;4.682;2023-03-02T13:59:47;9.20;99.90
37998;DHT22;24079;51.824;4.682;2023-03-02T14:02:31;9.30;99.90
37998;DHT22;24079;51.824;4.682;2023-03-02T14:04:57;9.30;99.90
37998;DHT22;24079;51.824;4.682;2023-03-02T14:07:23;9.30;99.90
37998;DHT22;24079;51.824;4.682;2023-03-02T14:09:49;9.40;99.90
37998;DHT22;24079;51.824;4.682;2023-03-02T14:12:24;9.40;99.90
37998;DHT22;24079;51.824;4.682;2023-03-02T14:14:52;9.40;99.90
37998;DHT22;24079;51.824;4.682;2023-03-02T14:17:22;9.40;99.90
37998;DHT22;24079;51.824;4.682;2023-03-02T14:19:49;9.40;99.90
37998;DHT22;24079;51.824;4.682;2023-03-02T14:22:22;9.30;99.90
37998;DHT22;24079;51.824;4.682;2023-03-02T14:24:48;9.40;99.90
37998;DHT22;24079;51.824;4.682;2023-03-02T14:27:15;9.30;99.90
37998;DHT22;24079;51.824;4.682;2023-03-02T14:29:44;9.30;99.90
37998;DHT22;24079;51.824;4.682;2023-03-02T14:32:12;9.30;99.90
37998;DHT22;24079;51.824;4.682;2023-03-02T14:34:38;9.30;99.90
37998;DHT22;24079;51.824;4.682;2023-03-02T14:37:15;9.30;99.90
37998;DHT22;24079;51.824;4.682;2023-03-02T14:39:45;9.30;99.90
37998;DHT22;24079;51.824;4.682;2023-03-02T14:42:14;9.30;99.90
37998;DHT22;24079;51.824;4.682;2023-03-02T14:44:41;9.30;99.90
37998;DHT22;24079;51.824;4.682;2023-03-02T14:47:07;9.40;99.90
37998;DHT22;24079;51.824;4.682;2023-03-02T14:49:35;9.30;99.90
37998;DHT22;24079;51.824;4.682;2023-03-02T14:52:38;9.30;99.90
37998;DHT22;24079;51.824;4.682;2023-03-02T14:55:11;9.40;99.90
37998;DHT22;24079;51.824;4.682;2023-03-02T14:57:38;9.30;99.90
37998;DHT22;24079;51.824;4.682;2023-03-02T15:00:06;9.20;99.90
37998;DHT22;24079;51.824;4.682;2023-03-02T15:02:32;9.10;99.90
37998;DHT22;24079;51.824;4.682;2023-03-02T15:04:58;9.00;99.90
37998;DHT22;24079;51.824;4.682;2023-03-02T15:07:26;8.90;99.90
37998;DHT22;24079;51.824;4.682;2023-03-02T15:09:52;8.80;99.90
37998;DHT22;24079;51.824;4.682;2023-03-02T15:12:18;8.70;99.90
37998;DHT22;24079;51.824;4.682;2023-03-02T15:14:44;8.60;99.90
37998;DHT22;24079;51.824;4.682;2023-03-02T15:17:09;8.40;99.90
37998;DHT22;24079;51.824;4.682;2023-03-02T15:19:35;8.30;99.90
37998;DHT22;24079;51.824;4.682;2023-03-02T15:22:00;8.20;99.90
37998;DHT22;24079;51.824;4.682;2023-03-02T15:24:27;8.10;99.90
37998;DHT22;24079;51.824;4.682;2023-03-02T15:26:53;8.20;99.90
37998;DHT22;24079;51.824;4.682;2023-03-02T15:29:20;8.20;99.90
37998;DHT22;24079;51.824;4.682;2023-03-02T15:31:46;8.10;99.90
37998;DHT22;24079;51.824;4.682;2023-03-02T15:34:12;8.10;99.90
37998;DHT22;24079;51.824;4.682;2023-03-02T15:36:38;8.20;99.90
37998;DHT22;24079;51.824;4.682;2023-03-02T15:39:05;8.20;99.90
37998;DHT22;24079;51.824;4.682;2023-03-02T15:41:33;8.20;99.90
37998;DHT22;24079;51.824;4.682;2023-03-02T15:43:59;8.10;99.90
37998;DHT22;24079;51.824;4.682;2023-03-02T15:46:25;8.10;99.90
37998;DHT22;24079;51.824;4.682;2023-03-02T15:48:51;8.20;99.90
37998;DHT22;24079;51.824;4.682;2023-03-02T15:51:18;8.20;99.90
37998;DHT22;24079;51.824;4.682;2023-03-02T15:53:44;8.20;99.90
37998;DHT22;24079;51.824;4.682;2023-03-02T15:56:12;8.10;99.90
37998;DHT22;24079;51.824;4.682;2023-03-02T15:58:38;8.10;99.90
37998;DHT22;24079;51.824;4.682;2023-03-02T16:01:09;8.30;99.90
37998;DHT22;24079;51.824;4.682;2023-03-02T16:03:35;8.30;99.90
37998;DHT22;24079;51.824;4.682;2023-03-02T16:06:01;8.50;99.90
37998;DHT22;24079;51.824;4.682;2023-03-02T16:08:28;8.40;99.90
37998;DHT22;24079;51.824;4.682;2023-03-02T16:10:58;8.40;99.90
37998;DHT22;24079;51.824;4.682;2023-03-02T16:13:24;8.50;99.90
37998;DHT22;24079;51.824;4.682;2023-03-02T16:15:49;8.60;99.90
37998;DHT22;24079;51.824;4.682;2023-03-02T16:18:15;8.50;99.90
37998;DHT22;24079;51.824;4.682;2023-03-02T16:20:41;8.50;99.90
37998;DHT22;24079;51.824;4.682;2023-03-02T16:23:07;8.40;99.90
37998;DHT22;24079;51.824;4.682;2023-03-02T16:25:35;8.50;99.90
37998;DHT22;24079;51.824;4.682;2023-03-02T16:28:05;8.60;99.90
37998;DHT22;24079;51.824;4.682;2023-03-02T16:30:31;8.40;99.90
37998;DHT22;24079;51.824;4.682;2023-03-02T16:32:58;8.30;99.90
37998;DHT22;24079;51.824;4.682;2023-03-02T16:35:25;8.20;99.90
37998;DHT22;24079;51.824;4.682;2023-03-02T16:37:51;8.20;99.90
37998;DHT22;24079;51.824;4.682;2023-03-02T16:40:16;8.20;99.90
37998;DHT22;24079;51.824;4.682;2023-03-02T16:42:42;7.90;99.90
37998;DHT22;24079;51.824;4.682;2023-03-02T16:45:09;7.80;99.90
37998;DHT22;24079;51.824;4.682;2023-03-02T16:47:35;7.60;99.90